Time;durP1;ratioP1;P1;durP2;ratioP2;P2;SDS_P1;SDS_P2;PMS_P1;PMS_P2;Temp;Humidity;BMP_temperature;BMP_pressure;BME280_temperature;BME280_humidity;BME280_pressure;Samples;Min_cycle;Max_cycle;Signal;HPM_P1;HPM_P2
2023/12/01 00:00:44;;;;;;;14.93;10.00;;;2.90;82.80;;;4.66;55.96;100440.97;3082316;46;20455;-67
2023/12/01 00:03:13;;;;;;;12.77;9.50;;;2.90;82.80;;;4.63;56.08;100437.84;3080220;43;20474;-67
2023/12/01 00:05:41;;;;;;;12.57;10.03;;;2.80;83.10;;;4.65;56.07;100446.34;3081931;46;21112;-66
2023/12/01 00:08:10;;;;;;;13.67;9.57;;;2.90;83.20;;;4.65;55.96;100438.53;3082049;46;20587;-65
2023/12/01 00:10:38;;;;;;;15.47;9.60;;;2.90;83.00;;;4.64;55.86;100444.69;3082206;46;20439;-66
2023/12/01 00:13:06;;;;;;;11.57;9.17;;;2.90;83.00;;;4.63;56.33;100443.06;3081068;46;20439;-68
2023/12/01 00:15:35;;;;;;;13.30;9.50;;;2.80;83.30;;;4.66;56.25;100438.38;3082219;46;20442;-66
2023/12/01 00:18:03;;;;;;;14.63;10.03;;;2.90;83.60;;;4.69;55.99;100437.25;3081744;46;21019;-66
2023/12/01 00:20:32;;;;;;;13.37;9.70;;;2.90;83.30;;;4.66;56.12;100440.16;3082362;46;20535;-67
2023/12/01 00:23:00;;;;;;;11.63;9.27;;;2.90;83.30;;;4.66;56.00;100445.38;3080965;46;20495;-67
2023/12/01 00:25:28;;;;;;;15.30;10.40;;;2.90;83.20;;;4.65;55.92;100446.34;3081133;46;21051;-66
2023/12/01 00:27:58;;;;;;;13.80;9.77;;;2.90;83.00;;;4.64;56.09;100444.69;3081592;46;20548;-66
2023/12/01 00:30:29;;;;;;;14.03;9.47;;;2.90;83.20;;;4.66;56.10;100455.78;3081950;46;20586;-64
2023/12/01 00:33:00;;;;;;;15.93;11.30;;;2.90;83.10;;;4.63;55.48;100454.31;3080944;46;20601;-66
2023/12/01 00:35:29;;;;;;;14.47;10.00;;;2.90;82.70;;;4.55;55.73;100454.19;3081533;46;20443;-66
2023/12/01 00:37:58;;;;;;;13.13;9.13;;;2.90;82.30;;;4.54;55.86;100462.16;3081533;46;20592;-66
2023/12/01 00:40:26;;;;;;;13.10;9.90;;;2.90;82.90;;;4.55;55.88;100461.19;3081770;46;21004;-67
2023/12/01 00:42:54;;;;;;;16.97;10.00;;;2.90;82.60;;;4.54;55.68;100464.78;3080921;46;20483;-68
2023/12/01 00:45:23;;;;;;;13.63;9.63;;;2.80;82.30;;;4.51;55.27;100463.28;3081718;46;20516;-66
2023/12/01 00:47:52;;;;;;;13.67;9.57;;;2.80;81.60;;;4.42;54.80;100463.31;3081643;46;20438;-65
2023/12/01 00:50:20;;;;;;;17.43;13.57;;;2.70;80.80;;;4.34;55.62;100471.81;3081697;46;20427;-65
2023/12/01 00:52:49;;;;;;;15.30;10.67;;;2.70;82.40;;;4.34;55.27;100473.59;3080686;46;20516;-67
2023/12/01 00:55:18;;;;;;;14.80;9.63;;;2.60;82.20;;;4.32;55.86;100472.94;3081504;46;20427;-68
2023/12/01 00:57:46;;;;;;;14.47;9.53;;;2.60;82.30;;;4.35;55.71;100475.25;3081669;46;20472;-66
2023/12/01 01:00:15;;;;;;;12.83;8.87;;;2.70;82.40;;;4.35;55.73;100470.03;3081672;46;20580;-66
2023/12/01 01:02:43;;;;;;;13.23;9.53;;;2.60;82.40;;;4.38;55.86;100474.94;3080310;46;20525;-66
2023/12/01 01:05:13;;;;;;;15.33;11.30;;;2.60;82.40;;;4.40;55.46;100473.03;3081554;43;20427;-66
2023/12/01 01:07:49;;;;;;;13.27;9.90;;;2.60;81.90;;;4.39;55.66;100481.81;3080992;46;20516;-68
2023/12/01 01:10:18;;;;;;;14.40;10.07;;;2.70;82.10;;;4.35;55.50;100481.25;3081485;46;20504;-66
2023/12/01 01:12:46;;;;;;;15.67;10.27;;;2.70;82.80;;;4.28;55.29;100479.38;3080817;46;20478;-66
2023/12/01 01:15:15;;;;;;;11.90;9.13;;;2.60;81.60;;;4.14;55.15;100477.22;3080865;46;20536;-67
2023/12/01 01:17:43;;;;;;;15.47;10.67;;;2.60;81.50;;;4.03;55.56;100486.81;3080910;46;20516;-67
2023/12/01 01:20:12;;;;;;;15.03;10.47;;;2.50;81.60;;;3.97;55.75;100492.56;3081396;46;20455;-65
2023/12/01 01:22:40;;;;;;;13.77;10.33;;;2.40;81.70;;;3.90;55.98;100490.66;3080614;46;20473;-68
2023/12/01 01:25:09;;;;;;;15.53;10.60;;;2.30;82.10;;;3.90;56.38;100499.28;3080310;46;20462;-67
2023/12/01 01:27:37;;;;;;;15.10;11.07;;;2.30;83.10;;;3.95;56.46;100499.69;3080856;46;21140;-66
2023/12/01 01:30:07;;;;;;;14.33;9.73;;;2.30;83.50;;;4.02;56.53;100492.97;3081334;46;20434;-66
2023/12/01 01:32:35;;;;;;;14.93;10.60;;;2.30;83.50;;;4.08;56.25;100496.81;3080643;46;20479;-68
2023/12/01 01:35:07;;;;;;;14.40;10.57;;;2.30;83.40;;;4.15;56.27;100486.66;3080230;46;20524;-71
2023/12/01 01:37:39;;;;;;;15.23;10.87;;;2.30;83.40;;;4.17;56.12;100493.38;3079706;46;20486;-66
2023/12/01 01:40:13;;;;;;;14.27;9.90;;;2.40;83.30;;;4.14;55.69;100501.47;3080438;46;21022;-66
2023/12/01 01:42:41;;;;;;;15.80;10.27;;;2.40;82.40;;;4.09;55.75;100501.88;3080246;46;20455;-68
2023/12/01 01:45:10;;;;;;;14.40;10.37;;;2.40;82.70;;;4.09;55.95;100499.28;3080463;46;20535;-68
2023/12/01 01:47:38;;;;;;;15.63;11.47;;;2.40;82.90;;;4.05;55.84;100495.31;3081061;46;20483;-66
2023/12/01 01:50:07;;;;;;;15.77;10.93;;;2.40;82.60;;;3.99;55.76;100495.84;3081399;46;20548;-66
2023/12/01 01:52:39;;;;;;;13.57;10.33;;;2.30;82.30;;;3.92;56.08;100494.75;3079965;46;21019;-66
2023/12/01 01:55:09;;;;;;;17.33;11.23;;;2.30;82.70;;;3.92;56.32;100499.97;3079042;46;20527;-67
2023/12/01 01:57:44;;;;;;;15.63;11.17;;;2.20;83.10;;;3.96;56.52;100496.16;3081153;46;21206;-66
2023/12/01 02:00:17;;;;;;;14.77;10.57;;;2.20;83.30;;;3.99;56.23;100501.06;3080289;46;20472;-66
2023/12/01 02:02:47;;;;;;;14.80;10.37;;;2.20;83.50;;;4.03;56.39;100502.44;3079769;46;20438;-66
2023/12/01 02:05:15;;;;;;;13.43;10.20;;;2.20;83.80;;;4.07;56.65;100506.41;3079348;46;20530;-71
2023/12/01 02:07:44;;;;;;;14.87;11.03;;;2.30;84.00;;;4.14;56.66;100500.66;3080650;46;20431;-66
2023/12/01 02:10:18;;;;;;;14.67;11.27;;;2.30;84.10;;;4.21;56.22;100507.75;3081034;46;20443;-66
2023/12/01 02:12:46;;;;;;;14.43;10.70;;;2.40;83.70;;;4.21;56.17;100507.75;3080330;46;20465;-66
2023/12/01 02:15:15;;;;;;;17.13;11.43;;;2.40;83.20;;;4.22;56.30;100516.38;3080176;46;20434;-68
2023/12/01 02:17:43;;;;;;;14.53;10.47;;;2.40;83.50;;;4.24;56.41;100514.47;3080989;46;21007;-66
2023/12/01 02:20:14;;;;;;;14.57;11.13;;;2.40;83.30;;;4.21;55.99;100514.75;3080628;46;20458;-68
2023/12/01 02:22:44;;;;;;;15.03;11.30;;;2.40;82.60;;;4.20;56.34;100520.91;3079882;46;20506;-68
2023/12/01 02:25:13;;;;;;;15.63;11.13;;;2.40;83.20;;;4.23;55.92;100523.25;3080170;46;20576;-66
2023/12/01 02:27:41;;;;;;;15.33;10.97;;;2.50;82.80;;;4.28;55.76;100521.06;3082077;46;20472;-68
2023/12/01 02:30:11;;;;;;;16.23;11.10;;;2.50;82.50;;;4.30;55.34;100519.13;3082770;46;20463;-65
2023/12/01 02:32:39;;;;;;;16.53;11.77;;;2.50;82.00;;;4.24;54.96;100523.09;3082742;46;20432;-67
2023/12/01 02:35:09;;;;;;;14.03;10.47;;;2.50;81.60;;;4.19;55.30;100527.91;3082984;46;20433;-68
2023/12/01 02:37:37;;;;;;;14.37;10.47;;;2.50;82.00;;;4.16;55.52;100527.38;3082983;46;20503;-66
2023/12/01 02:40:14;;;;;;;17.67;11.10;;;2.50;81.90;;;4.15;55.48;100517.91;3082334;46;21031;-66
2023/12/01 02:42:50;;;;;;;15.70;11.03;;;2.50;82.10;;;4.15;55.62;100525.72;3082771;46;20469;-67
2023/12/01 02:45:21;;;;;;;16.77;12.30;;;2.50;82.00;;;4.18;55.67;100525.44;3082801;46;20439;-67
2023/12/01 02:47:49;;;;;;;16.90;11.60;;;2.50;81.90;;;4.17;55.72;100515.97;3082731;46;20430;-66
2023/12/01 02:50:18;;;;;;;17.03;11.17;;;2.50;81.90;;;4.20;55.81;100526.97;3082597;46;21231;-65
2023/12/01 02:52:46;;;;;;;15.03;11.53;;;2.50;81.90;;;4.26;55.56;100535.97;3082047;46;20472;-67
2023/12/01 02:55:15;;;;;;;18.07;12.20;;;2.50;81.80;;;4.28;55.40;100536.69;3083150;46;21064;-67
2023/12/01 02:57:43;;;;;;;19.10;12.80;;;2.60;81.70;;;4.28;55.19;100532.28;3082636;46;20530;-67
2023/12/01 03:00:15;;;;;;;19.83;13.37;;;2.50;81.20;;;4.24;55.11;100543.13;3082304;46;20427;-66
2023/12/01 03:02:44;;;;;;;18.37;12.70;;;2.50;80.90;;;4.20;54.96;100544.34;3082187;46;21005;-66
2023/12/01 03:05:13;;;;;;;21.70;14.63;;;2.40;80.80;;;4.17;54.97;100542.03;3082752;46;20590;-66
2023/12/01 03:07:59;;;;;;;21.33;14.73;;;2.40;80.80;;;4.10;54.91;100547.78;3082544;46;21110;-66
2023/12/01 03:10:28;;;;;;;23.33;16.83;;;2.40;80.40;;;4.02;54.41;100545.03;3081798;46;20446;-66
2023/12/01 03:12:56;;;;;;;24.00;16.63;;;2.30;79.90;;;3.92;54.57;100541.63;3082240;46;20442;-68
2023/12/01 03:15:25;;;;;;;21.33;15.03;;;2.30;79.80;;;3.81;55.02;100549.56;3083353;44;20434;-69
2023/12/01 03:17:53;;;;;;;25.70;17.13;;;2.10;80.70;;;3.78;54.91;100543.81;3082350;46;20479;-66
2023/12/01 03:20:22;;;;;;;22.57;16.03;;;2.10;80.80;;;3.74;55.33;100543.25;3082209;46;20427;-66
2023/12/01 03:22:50;;;;;;;22.07;15.40;;;2.10;81.50;;;3.73;55.55;100541.59;3081467;46;20461;-66
2023/12/01 03:25:19;;;;;;;23.10;15.13;;;2.00;81.70;;;3.75;55.64;100539.72;3082612;46;21133;-66
2023/12/01 03:27:48;;;;;;;26.87;16.70;;;2.00;82.00;;;3.77;55.55;100543.00;3081426;46;20511;-66
2023/12/01 03:30:20;;;;;;;28.30;19.30;;;2.10;81.90;;;3.74;55.50;100545.03;3082038;46;21115;-67
2023/12/01 03:32:52;;;;;;;24.23;16.47;;;2.00;81.20;;;3.70;55.37;100541.91;3082055;46;20458;-66
2023/12/01 03:35:26;;;;;;;29.80;19.40;;;2.00;81.70;;;3.67;55.57;100542.16;3082186;46;21110;-67
2023/12/01 03:37:56;;;;;;;25.00;17.30;;;2.00;81.30;;;3.60;55.55;100541.06;3082292;46;21442;-64
2023/12/01 03:40:26;;;;;;;27.87;17.40;;;1.90;81.30;;;3.58;55.63;100552.56;3082185;46;20435;-68
2023/12/01 03:42:55;;;;;;;28.37;18.07;;;1.90;81.70;;;3.57;55.64;100556.94;3082147;46;20503;-68
2023/12/01 03:45:24;;;;;;;29.43;18.60;;;1.90;81.70;;;3.51;55.48;100547.06;3082489;46;20530;-66
2023/12/01 03:47:52;;;;;;;32.33;18.73;;;1.80;81.90;;;3.49;55.45;100555.97;3082259;46;21019;-65
2023/12/01 03:50:21;;;;;;;29.97;19.57;;;1.80;81.60;;;3.45;55.84;100552.78;3081719;46;21115;-65
2023/12/01 03:52:51;;;;;;;30.10;19.27;;;1.80;81.90;;;3.47;56.05;100550.88;3081748;46;20563;-67
2023/12/01 03:55:19;;;;;;;27.90;19.10;;;1.80;82.30;;;3.49;56.07;100554.19;3082311;46;20549;-66
2023/12/01 03:57:58;;;;;;;28.43;18.07;;;1.80;82.50;;;3.51;56.21;100554.88;3081836;46;20993;-67
2023/12/01 04:00:32;;;;;;;26.53;18.43;;;1.80;82.50;;;3.52;55.98;100556.50;3080913;46;20434;-69
2023/12/01 04:03:01;;;;;;;28.03;18.30;;;1.80;82.50;;;3.51;55.77;100557.47;3081990;46;20468;-66
2023/12/01 04:05:30;;;;;;;28.23;19.27;;;1.90;82.10;;;3.50;55.99;100558.41;3081287;46;20638;-68
2023/12/01 04:08:03;;;;;;;26.73;18.67;;;1.80;81.60;;;3.51;55.87;100560.06;3081946;46;20493;-67
2023/12/01 04:10:36;;;;;;;28.30;19.03;;;1.80;82.00;;;3.54;55.76;100559.81;3081195;46;20524;-66
2023/12/01 04:13:07;;;;;;;28.50;17.87;;;1.90;82.00;;;3.53;55.37;100558.16;3080525;43;20471;-69
2023/12/01 04:15:36;;;;;;;32.90;19.23;;;1.90;81.10;;;3.48;55.73;100562.09;3082089;46;20541;-66
2023/12/01 04:18:08;;;;;;;26.53;17.80;;;1.90;81.50;;;3.42;55.52;100553.88;3082116;46;20579;-65
2023/12/01 04:20:38;;;;;;;28.70;19.27;;;1.90;81.10;;;3.38;55.75;100554.28;3081279;46;20584;-65
2023/12/01 04:23:09;;;;;;;26.23;17.53;;;1.80;81.10;;;3.36;55.81;100564.00;3081128;46;20629;-66
2023/12/01 04:25:49;;;;;;;28.70;17.67;;;1.80;81.30;;;3.38;55.69;100559.47;3081247;46;21124;-65
2023/12/01 04:28:17;;;;;;;29.37;19.07;;;1.80;81.00;;;3.33;55.76;100561.66;3081927;46;20969;-66
2023/12/01 04:30:46;;;;;;;24.33;17.70;;;1.70;81.70;;;3.29;55.83;100555.91;3081431;46;20464;-66
2023/12/01 04:33:14;;;;;;;27.77;17.50;;;1.80;81.20;;;3.28;56.02;100561.25;3081468;46;20559;-66
2023/12/01 04:35:43;;;;;;;29.63;19.93;;;1.80;81.80;;;3.28;55.79;100561.25;3081276;46;20431;-66
2023/12/01 04:38:11;;;;;;;26.67;19.17;;;1.70;81.30;;;3.26;56.25;100552.75;3081941;46;20555;-66
2023/12/01 04:40:39;;;;;;;25.70;16.50;;;1.70;81.70;;;3.25;55.94;100562.34;3081214;46;20438;-69
2023/12/01 04:43:07;;;;;;;25.80;17.77;;;1.70;81.60;;;3.25;55.92;100566.72;3081385;46;20471;-66
2023/12/01 04:45:36;;;;;;;29.17;18.50;;;1.70;81.50;;;3.24;56.13;100570.25;3081822;46;20435;-64
2023/12/01 04:48:07;;;;;;;27.10;17.33;;;1.70;81.30;;;3.23;56.17;100577.22;3081646;46;20513;-66
2023/12/01 04:50:46;;;;;;;23.83;17.23;;;1.70;81.30;;;3.23;55.87;100581.63;3080483;46;20534;-69
2023/12/01 04:53:15;;;;;;;28.37;18.23;;;1.70;81.10;;;3.25;55.97;100582.31;3081354;46;21031;-66
2023/12/01 04:55:43;;;;;;;27.37;17.53;;;1.70;81.20;;;3.26;56.10;100594.34;3081634;46;20495;-68
2023/12/01 04:58:12;;;;;;;26.70;17.63;;;1.70;81.10;;;3.25;55.91;100585.75;3081842;46;21076;-66
2023/12/01 05:00:40;;;;;;;28.17;18.30;;;1.70;81.20;;;3.23;56.08;100584.22;3081087;46;21253;-65
2023/12/01 05:03:08;;;;;;;26.20;18.20;;;1.80;81.50;;;3.23;56.04;100584.22;3081192;46;20475;-67
2023/12/01 05:05:41;;;;;;;28.23;17.97;;;1.70;81.50;;;3.24;56.37;100591.06;3081630;46;20531;-67
2023/12/01 05:08:10;;;;;;;25.43;17.80;;;1.70;81.60;;;3.25;56.29;100582.31;3081924;46;20446;-66
2023/12/01 05:10:44;;;;;;;26.63;17.27;;;1.70;81.30;;;3.22;55.93;100593.78;3080905;46;21140;-66
2023/12/01 05:13:14;;;;;;;25.40;16.37;;;1.70;81.10;;;3.21;55.77;100593.94;3081026;46;20550;-66
2023/12/01 05:15:42;;;;;;;23.63;16.77;;;1.70;81.20;;;3.18;56.05;100596.78;3081289;46;21078;-68
2023/12/01 05:18:11;;;;;;;25.50;16.50;;;1.70;81.10;;;3.16;55.93;100598.69;3081455;46;20442;-68
2023/12/01 05:20:40;;;;;;;25.00;17.03;;;1.70;81.30;;;3.16;56.21;100601.31;3081140;46;20588;-66
2023/12/01 05:23:15;;;;;;;24.43;16.73;;;1.70;81.20;;;3.14;56.08;100598.81;3081139;46;20538;-67
2023/12/01 05:25:44;;;;;;;26.90;17.40;;;1.60;81.10;;;3.11;56.00;100595.66;3081328;46;20640;-66
2023/12/01 05:28:12;;;;;;;27.07;17.00;;;1.60;81.20;;;3.07;56.32;100594.25;3080864;46;20438;-68
2023/12/01 05:30:45;;;;;;;27.23;17.10;;;1.60;81.40;;;3.05;56.24;100590.97;3080701;46;20434;-68
2023/12/01 05:33:14;;;;;;;27.83;18.13;;;1.60;81.40;;;3.02;56.29;100593.84;3080715;46;20527;-65
2023/12/01 05:35:46;;;;;;;25.80;16.80;;;1.50;81.60;;;2.98;56.48;100597.66;3080631;43;20427;-67
2023/12/01 05:38:16;;;;;;;26.47;17.60;;;1.50;81.80;;;2.99;56.72;100597.53;3080778;46;20439;-68
2023/12/01 05:40:44;;;;;;;26.63;16.53;;;1.50;82.20;;;3.01;56.43;100597.41;3080583;46;20529;-69
2023/12/01 05:43:13;;;;;;;25.57;16.70;;;1.60;82.10;;;2.98;56.72;100597.66;3080894;46;20445;-66
2023/12/01 05:45:41;;;;;;;28.03;18.23;;;1.50;82.00;;;2.99;56.48;100596.69;3080943;46;20544;-66
2023/12/01 05:48:10;;;;;;;26.67;17.00;;;1.60;82.20;;;3.01;56.73;100597.41;3081422;46;20439;-68
2023/12/01 05:50:42;;;;;;;28.73;17.77;;;1.50;81.70;;;3.00;56.69;100595.72;3080790;46;20466;-65
2023/12/01 05:53:13;;;;;;;26.23;17.80;;;1.50;81.90;;;2.99;56.90;100601.91;3080506;46;20472;-66
2023/12/01 05:55:41;;;;;;;24.37;17.70;;;1.50;82.30;;;3.01;56.60;100607.78;3080329;46;20537;-67
2023/12/01 05:58:14;;;;;;;23.83;16.83;;;1.50;82.20;;;3.04;56.51;100605.78;3080516;46;20475;-68
2023/12/01 06:00:42;;;;;;;27.43;17.77;;;1.60;81.90;;;3.05;56.74;100610.00;3080733;46;20576;-70
2023/12/01 06:03:11;;;;;;;27.57;18.03;;;1.60;82.90;;;3.09;56.74;100613.19;3082804;46;20471;-66
2023/12/01 06:05:40;;;;;;;30.13;18.17;;;1.60;81.90;;;3.11;56.82;100616.47;3083067;46;20426;-66
2023/12/01 06:08:09;;;;;;;27.00;17.37;;;1.60;82.00;;;3.11;56.56;100616.47;3081614;46;21105;-64
2023/12/01 06:10:39;;;;;;;31.20;18.87;;;1.70;82.50;;;3.12;56.74;100613.72;3083095;46;20999;-69
2023/12/01 06:13:11;;;;;;;26.93;18.60;;;1.60;82.00;;;3.12;56.64;100605.94;3082434;46;20538;-68
2023/12/01 06:15:41;;;;;;;24.20;16.97;;;1.60;81.70;;;3.10;56.47;100614.81;3082501;46;20438;-66
2023/12/01 06:18:10;;;;;;;28.07;18.83;;;1.60;81.40;;;3.05;56.18;100609.16;3081964;46;20472;-66
2023/12/01 06:20:38;;;;;;;27.47;17.87;;;1.60;81.40;;;3.05;56.62;100616.97;3082646;46;20533;-69
2023/12/01 06:23:07;;;;;;;30.00;18.47;;;1.60;81.80;;;3.06;56.49;100623.81;3082823;46;20472;-66
2023/12/01 06:25:38;;;;;;;22.33;16.10;;;1.60;81.90;;;3.04;56.42;100630.94;3083329;46;20438;-67
2023/12/01 06:28:08;;;;;;;28.30;18.37;;;1.60;81.70;;;3.01;55.82;100625.97;3082081;46;20983;-66
2023/12/01 06:30:38;;;;;;;26.03;17.30;;;1.50;81.20;;;2.93;56.44;100628.38;3082050;46;20438;-66
2023/12/01 06:33:08;;;;;;;25.67;16.97;;;1.50;81.90;;;2.93;57.04;100631.00;3081847;46;20488;-66
2023/12/01 06:35:36;;;;;;;29.37;19.20;;;1.50;82.40;;;2.93;56.94;100636.19;3082616;46;21019;-65
2023/12/01 06:38:07;;;;;;;29.93;17.93;;;1.40;82.60;;;2.96;56.98;100643.72;3082519;46;20498;-68
2023/12/01 06:40:35;;;;;;;29.77;18.73;;;1.50;82.60;;;2.96;56.76;100639.38;3082893;46;20995;-66
2023/12/01 06:43:09;;;;;;;30.17;18.23;;;1.50;82.20;;;2.95;56.92;100645.50;3082367;46;20443;-66
2023/12/01 06:45:41;;;;;;;29.63;18.63;;;1.50;82.60;;;2.95;57.15;100647.31;3083368;46;20455;-68
2023/12/01 06:48:11;;;;;;;27.37;17.53;;;1.50;82.70;;;3.00;57.00;100655.50;3082599;46;20432;-66
2023/12/01 06:50:40;;;;;;;30.37;18.17;;;1.50;82.60;;;3.05;56.99;100653.34;3082474;46;20433;-68
2023/12/01 06:53:10;;;;;;;31.47;19.93;;;1.60;82.60;;;3.07;56.69;100647.06;3082724;46;20446;-66
2023/12/01 06:55:39;;;;;;;33.93;20.20;;;1.60;82.20;;;3.08;56.77;100653.94;3082551;46;20484;-68
2023/12/01 06:58:09;;;;;;;26.70;17.90;;;1.60;82.20;;;3.11;57.02;100665.84;3082570;46;20981;-68
2023/12/01 07:00:38;;;;;;;33.23;19.77;;;1.60;82.40;;;3.11;56.43;100661.50;3082746;46;20427;-66
2023/12/01 07:03:08;;;;;;;31.43;20.60;;;1.60;81.80;;;3.08;56.45;100664.34;3082190;46;20446;-64
2023/12/01 07:05:40;;;;;;;28.67;18.47;;;1.60;81.60;;;3.02;56.64;100671.84;3082428;46;20445;-69
2023/12/01 07:08:12;;;;;;;32.20;19.67;;;1.60;82.10;;;2.98;56.84;100678.22;3081828;46;20590;-69
2023/12/01 07:10:42;;;;;;;30.23;19.53;;;1.50;82.40;;;2.94;57.01;100676.84;3082532;46;20446;-66
2023/12/01 07:13:10;;;;;;;36.57;22.43;;;1.50;82.70;;;2.92;57.11;100681.34;3081742;43;20548;-68
2023/12/01 07:15:39;;;;;;;33.90;21.43;;;1.50;83.00;;;2.93;57.15;100680.38;3081864;46;20443;-67
2023/12/01 07:18:09;;;;;;;34.40;20.97;;;1.50;83.00;;;2.94;57.38;100682.03;3082217;46;20465;-70
2023/12/01 07:20:38;;;;;;;31.10;20.53;;;1.50;83.10;;;2.95;57.31;100683.69;3082259;46;21004;-66
2023/12/01 07:23:06;;;;;;;36.33;21.20;;;1.50;83.00;;;2.97;57.17;100702.56;3081818;46;20565;-68
2023/12/01 07:25:35;;;;;;;32.83;22.00;;;1.50;82.60;;;2.95;56.99;100700.09;3082472;46;20547;-66
2023/12/01 07:28:08;;;;;;;34.37;20.90;;;1.50;82.90;;;2.95;57.14;100709.69;3081806;46;20442;-66
2023/12/01 07:30:38;;;;;;;33.27;21.30;;;1.50;82.80;;;2.92;57.25;100712.53;3081789;46;21014;-66
2023/12/01 07:33:08;;;;;;;34.83;21.93;;;1.40;82.60;;;2.91;56.83;100718.66;3081741;46;20458;-65
2023/12/01 07:35:36;;;;;;;32.60;20.60;;;1.40;82.60;;;2.87;57.05;100723.28;3081783;46;20560;-66
2023/12/01 07:38:04;;;;;;;32.97;20.80;;;1.40;82.60;;;2.82;56.75;100732.41;3082222;46;21034;-66
2023/12/01 07:40:33;;;;;;;34.13;21.53;;;1.30;82.50;;;2.80;57.25;100731.72;3081824;46;20504;-68
2023/12/01 07:43:03;;;;;;;37.83;22.33;;;1.20;83.10;;;2.84;57.54;100735.69;3081628;46;20450;-66
2023/12/01 07:45:31;;;;;;;42.50;27.23;;;1.20;83.70;;;2.91;57.77;100729.06;3082641;46;20442;-69
2023/12/01 07:48:00;;;;;;;39.07;23.43;;;1.20;84.00;;;3.02;57.51;100727.22;3082002;46;20991;-66
2023/12/01 07:50:28;;;;;;;33.90;21.70;;;1.30;84.40;;;3.15;57.39;100733.06;3081911;46;20438;-66
2023/12/01 07:52:56;;;;;;;32.97;20.53;;;1.40;84.50;;;3.26;57.08;100729.56;3081809;46;21033;-66
2023/12/01 07:55:26;;;;;;;33.87;21.87;;;1.40;84.10;;;3.33;56.75;100741.91;3082286;46;21094;-66
2023/12/01 07:57:55;;;;;;;33.30;20.40;;;1.50;83.80;;;3.39;56.73;100740.59;3082073;46;20446;-66
2023/12/01 08:00:23;;;;;;;34.27;20.30;;;1.60;84.10;;;3.47;57.13;100739.97;3081607;46;20458;-66
2023/12/01 08:02:58;;;;;;;27.50;18.60;;;1.60;84.10;;;3.54;56.82;100734.09;3081738;46;20434;-66
2023/12/01 08:05:26;;;;;;;31.50;20.63;;;1.60;83.70;;;3.61;56.40;100737.84;3082557;46;21111;-67
2023/12/01 08:07:55;;;;;;;34.10;21.70;;;1.80;83.40;;;3.71;56.48;100746.50;3081698;46;20446;-66
2023/12/01 08:10:27;;;;;;;34.73;21.60;;;1.80;83.20;;;3.77;55.98;100740.78;3081190;46;20523;-66
2023/12/01 08:12:59;;;;;;;30.80;20.53;;;1.80;82.90;;;3.80;55.71;100750.94;3080858;46;21115;-67
2023/12/01 08:15:28;;;;;;;33.17;20.30;;;1.90;82.70;;;3.76;55.29;100748.69;3081244;46;20439;-66
2023/12/01 08:17:58;;;;;;;35.47;21.90;;;1.90;82.40;;;3.73;55.85;100749.78;3080827;46;20434;-68
2023/12/01 08:20:28;;;;;;;32.77;20.67;;;1.90;82.60;;;3.74;55.83;100746.25;3081086;46;20527;-66
2023/12/01 08:22:58;;;;;;;47.40;29.57;;;1.90;82.90;;;3.84;56.26;100751.47;3081624;46;20462;-66
2023/12/01 08:25:28;;;;;;;35.17;22.60;;;2.00;83.40;;;3.92;55.93;100762.06;3081016;46;20431;-66
2023/12/01 08:27:56;;;;;;;33.53;21.37;;;2.00;83.10;;;3.97;55.72;100763.31;3080903;46;20485;-66
2023/12/01 08:30:25;;;;;;;31.73;21.30;;;2.00;83.10;;;4.02;55.56;100761.13;3081173;46;20427;-65
2023/12/01 08:32:55;;;;;;;32.07;20.67;;;2.10;82.40;;;4.04;55.66;100769.63;3081315;46;20482;-66
2023/12/01 08:35:24;;;;;;;35.03;21.27;;;2.10;82.20;;;4.06;55.35;100762.50;3081037;46;20467;-66
2023/12/01 08:37:53;;;;;;;34.50;22.73;;;2.20;82.60;;;4.17;55.72;100768.59;3081565;46;20541;-66
2023/12/01 08:40:22;;;;;;;34.33;21.63;;;2.20;82.60;;;4.28;55.49;100765.88;3080395;46;20548;-66
2023/12/01 08:42:54;;;;;;;34.47;21.40;;;2.30;82.50;;;4.37;55.29;100765.09;3081346;46;20568;-68
2023/12/01 08:45:22;;;;;;;35.73;21.87;;;2.30;82.30;;;4.45;54.89;100758.22;3081592;46;20447;-66
2023/12/01 08:47:51;;;;;;;36.53;21.80;;;2.40;82.20;;;4.59;55.10;100760.44;3081608;46;20434;-66
2023/12/01 08:50:21;;;;;;;34.07;21.50;;;2.50;82.20;;;4.76;54.86;100766.75;3080252;43;20438;-65
2023/12/01 08:52:49;;;;;;;36.70;22.67;;;2.60;82.30;;;4.89;54.34;100766.50;3080828;46;20453;-66
2023/12/01 08:55:17;;;;;;;29.97;20.33;;;2.70;81.80;;;5.01;54.18;100763.63;3081687;46;20427;-66
2023/12/01 08:57:46;;;;;;;36.43;22.57;;;2.80;81.60;;;5.10;54.05;100764.56;3080680;46;20584;-67
2023/12/01 09:00:20;;;;;;;31.80;20.93;;;2.90;81.40;;;5.21;53.77;100772.22;3081215;46;20465;-67
2023/12/01 09:02:51;;;;;;;34.83;20.73;;;3.00;81.50;;;5.30;53.40;100769.59;3080496;46;20446;-65
2023/12/01 09:05:21;;;;;;;33.80;22.57;;;3.10;80.90;;;5.33;53.21;100761.50;3081109;46;20462;-67
2023/12/01 09:07:49;;;;;;;33.40;21.57;;;3.20;80.00;;;5.35;52.71;100766.56;3079805;46;20500;-67
2023/12/01 09:10:22;;;;;;;36.77;21.80;;;3.20;79.20;;;5.32;52.48;100767.72;3081059;43;21020;-67
2023/12/01 09:12:52;;;;;;;35.27;21.80;;;3.20;78.80;;;5.27;52.39;100769.91;3079880;46;20448;-68
2023/12/01 09:15:20;;;;;;;33.13;22.00;;;3.20;79.10;;;5.27;52.90;100767.31;3080126;46;21025;-68
2023/12/01 09:17:50;;;;;;;33.67;22.40;;;3.20;79.10;;;5.27;52.57;100772.53;3079382;46;20446;-69
2023/12/01 09:20:20;;;;;;;33.07;22.50;;;3.20;78.80;;;5.26;52.97;100770.84;3080229;46;21035;-66
2023/12/01 09:22:48;;;;;;;35.93;22.00;;;3.30;79.30;;;5.29;52.91;100781.03;3080244;46;20459;-69
2023/12/01 09:25:17;;;;;;;31.77;20.77;;;3.20;79.60;;;5.32;52.85;100770.31;3077092;43;20427;-67
2023/12/01 09:27:46;;;;;;;37.47;22.77;;;3.20;79.40;;;5.39;52.78;100768.78;3078219;46;20505;-68
2023/12/01 09:30:16;;;;;;;33.10;22.30;;;3.30;79.60;;;5.49;52.61;100768.78;3078575;46;20545;-68
2023/12/01 09:32:46;;;;;;;32.37;20.83;;;3.30;79.50;;;5.51;52.45;100768.63;3080197;46;20552;-67
2023/12/01 09:35:15;;;;;;;39.90;25.67;;;3.30;79.40;;;5.47;52.46;100768.91;3079580;46;20453;-67
2023/12/01 09:38:04;;;;;;;33.20;21.70;;;3.40;79.10;;;5.38;52.23;100769.75;3080852;46;20479;-68
2023/12/01 09:40:41;;;;;;;32.07;20.57;;;3.30;78.70;;;5.26;52.31;100770.03;3079972;46;20956;-67
2023/12/01 09:43:12;;;;;;;31.23;19.87;;;3.30;78.60;;;5.10;52.63;100780.22;3079367;46;20435;-69
2023/12/01 09:45:42;;;;;;;31.53;19.87;;;3.20;78.80;;;5.01;53.08;100771.44;3078756;46;20484;-69
2023/12/01 09:48:14;;;;;;;34.70;21.97;;;3.10;79.80;;;5.03;53.14;100779.13;3079322;46;20451;-70
2023/12/01 09:50:44;;;;;;;38.57;24.03;;;3.10;79.80;;;4.98;53.41;100776.94;3076400;46;20978;-69
2023/12/01 09:53:16;;;;;;;34.53;22.40;;;3.10;79.90;;;4.93;53.35;100773.06;3079157;46;20463;-72
2023/12/01 09:55:44;;;;;;;36.70;23.00;;;3.00;80.00;;;4.84;53.86;100774.72;3079526;46;20550;-69
2023/12/01 09:58:14;;;;;;;34.93;21.77;;;3.00;80.20;;;4.77;53.87;100768.41;3079135;46;20464;-64
2023/12/01 10:00:47;;;;;;;33.70;21.63;;;2.90;80.90;;;4.77;54.31;100771.03;3078067;46;20619;-67
2023/12/01 10:03:16;;;;;;;37.87;22.93;;;2.90;81.20;;;4.81;54.57;100772.41;3075778;46;20975;-70
2023/12/01 10:05:45;;;;;;;34.70;22.00;;;2.90;81.90;;;4.89;54.48;100769.94;3078271;43;20523;-67
2023/12/01 10:08:16;;;;;;;34.47;22.17;;;2.90;81.90;;;4.95;54.36;100782.41;3078212;46;21365;-70
2023/12/01 10:10:45;;;;;;;34.63;21.27;;;2.90;82.00;;;5.00;54.68;100784.59;3076981;46;20423;-68
2023/12/01 10:13:14;;;;;;;39.23;23.27;;;2.90;82.00;;;5.06;54.59;100779.69;3078074;46;21175;-67
2023/12/01 10:15:43;;;;;;;35.70;21.87;;;2.90;82.30;;;5.15;54.65;100783.22;3078730;46;20431;-69
2023/12/01 10:18:23;;;;;;;35.67;21.77;;;3.00;82.20;;;5.19;54.10;100780.22;3077927;46;20427;-69
2023/12/01 10:21:03;;;;;;;36.27;22.40;;;3.10;82.10;;;5.21;54.08;100783.50;3077249;46;21045;-68
2023/12/01 10:23:36;;;;;;;98.40;62.57;;;3.10;82.60;;;5.23;54.28;100785.97;3076920;46;20442;-69